Time,TemperatureF,DewpointF,PressureIn,WindDirection,WindDirectionDegrees,WindSpeedMPH,WindSpeedGustMPH,Humidity,HourlyPrecipIn,Conditions,Clouds,dailyrainin,SolarRadiationWatts/m^2,SoftwareType,DateUTC
2013-03-03 00:01:00,53.0,45.0,-100.00,SSW,208,2.0,5.0,73,0.00,,,0.00,0.000000,,2013-03-03 08:01:00,
2013-03-03 00:32:00,54.0,46.0,-100.00,WNW,291,2.0,11.0,74,0.00,,,0.00,0.000000,,2013-03-03 08:32:00,
2013-03-03 00:42:00,54.0,46.0,-100.00,WNW,291,2.0,11.0,74,0.00,,,0.00,0.000000,,2013-03-03 08:42:00,
2013-03-03 00:54:00,54.0,46.0,-100.00,WNW,291,2.0,11.0,74,0.00,,,0.00,0.000000,,2013-03-03 08:54:00,
2013-03-03 01:01:00,54.0,46.0,-100.00,WNW,291,2.0,11.0,74,0.00,,,0.00,0.000000,,2013-03-03 09:01:00,
2013-03-03 01:32:00,57.0,42.0,-100.00,SSE,164,4.0,11.0,57,0.00,,,0.00,0.000000,,2013-03-03 09:32:00,
2013-03-03 01:42:00,57.0,42.0,-100.00,SSE,164,4.0,11.0,57,0.00,,,0.00,0.000000,,2013-03-03 09:42:00,
2013-03-03 01:52:00,57.0,42.0,-100.00,SSE,164,4.0,11.0,57,0.00,,,0.00,0.000000,,2013-03-03 09:52:00,
2013-03-03 02:01:00,57.0,42.0,-100.00,SSE,164,4.0,11.0,57,0.00,,,0.00,0.000000,,2013-03-03 10:01:00,
2013-03-03 02:32:00,54.0,48.0,-100.00,WNW,290,3.0,19.0,79,0.00,,,0.00,0.000000,,2013-03-03 10:32:00,
2013-03-03 02:42:00,54.0,48.0,-100.00,WNW,290,3.0,19.0,79,0.00,,,0.00,0.000000,,2013-03-03 10:42:00,
2013-03-03 02:52:00,54.0,48.0,-100.00,WNW,290,3.0,19.0,79,0.00,,,0.00,0.000000,,2013-03-03 10:52:00,
2013-03-03 03:01:00,54.0,48.0,-100.00,WNW,290,3.0,19.0,79,0.00,,,0.00,0.000000,,2013-03-03 11:01:00,
2013-03-03 03:32:00,52.0,49.0,-100.00,SW,217,3.0,7.0,88,0.00,,,0.00,0.000000,,2013-03-03 11:32:00,
2013-03-03 03:42:00,52.0,49.0,-100.00,SW,217,3.0,7.0,88,0.00,,,0.00,0.000000,,2013-03-03 11:42:00,
2013-03-03 03:52:00,52.0,49.0,-100.00,SW,217,3.0,7.0,88,0.00,,,0.00,0.000000,,2013-03-03 11:52:00,
2013-03-03 04:01:00,52.0,49.0,-100.00,SW,217,3.0,7.0,88,0.00,,,0.00,0.000000,,2013-03-03 12:01:00,
2013-03-03 04:32:00,52.0,48.0,-100.00,SW,232,3.0,18.0,87,0.00,,,0.00,0.000000,,2013-03-03 12:32:00,
2013-03-03 04:43:00,52.0,48.0,-100.00,SW,232,3.0,18.0,87,0.00,,,0.00,0.000000,,2013-03-03 12:43:00,
2013-03-03 04:52:00,52.0,48.0,-100.00,SW,232,3.0,18.0,87,0.00,,,0.00,0.000000,,2013-03-03 12:52:00,
2013-03-03 05:01:00,52.0,48.0,-100.00,SW,232,3.0,18.0,87,0.00,,,0.00,0.000000,,2013-03-03 13:01:00,
2013-03-03 05:32:00,51.0,49.0,-100.00,SSW,197,3.0,5.0,94,0.00,,,0.00,0.000000,,2013-03-03 13:32:00,
2013-03-03 05:42:00,51.0,49.0,-100.00,SSW,197,3.0,5.0,94,0.00,,,0.00,0.000000,,2013-03-03 13:42:00,
2013-03-03 05:52:00,51.0,49.0,-100.00,SSW,197,3.0,5.0,94,0.00,,,0.00,0.000000,,2013-03-03 13:52:00,
2013-03-03 06:01:00,51.0,49.0,-100.00,SSW,197,3.0,5.0,94,0.00,,,0.00,0.000000,,2013-03-03 14:01:00,
2013-03-03 06:32:00,50.0,48.0,-100.00,NW,324,2.0,6.0,93,0.00,,,0.00,0.000000,,2013-03-03 14:32:00,
2013-03-03 06:42:00,50.0,48.0,-100.00,NW,324,2.0,6.0,93,0.00,,,0.00,0.000000,,2013-03-03 14:42:00,
2013-03-03 06:52:00,50.0,48.0,-100.00,NW,324,2.0,6.0,93,0.00,,,0.00,0.000000,,2013-03-03 14:52:00,
2013-03-03 07:01:00,50.0,48.0,-100.00,NW,324,2.0,6.0,93,0.00,,,0.00,0.000000,,2013-03-03 15:01:00,
2013-03-03 07:32:00,50.0,49.0,-100.00,SSW,193,0.0,7.0,95,0.00,,,0.00,5.000000,,2013-03-03 15:32:00,
2013-03-03 07:42:00,50.0,49.0,-100.00,SSW,193,0.0,7.0,95,0.00,,,0.00,5.000000,,2013-03-03 15:42:00,
2013-03-03 07:52:00,50.0,49.0,-100.00,SSW,193,0.0,7.0,95,0.00,,,0.00,5.000000,,2013-03-03 15:52:00,
2013-03-03 08:01:00,50.0,49.0,-100.00,SSW,193,0.0,7.0,95,0.00,,,0.00,5.000000,,2013-03-03 16:01:00,
2013-03-03 08:32:00,52.0,49.0,-100.00,SSE,148,2.0,4.0,91,0.00,,,0.00,76.000000,,2013-03-03 16:32:00,
2013-03-03 08:42:00,52.0,49.0,-100.00,SSE,148,2.0,4.0,91,0.00,,,0.00,76.000000,,2013-03-03 16:42:00,
2013-03-03 08:52:00,52.0,49.0,-100.00,SSE,148,2.0,4.0,91,0.00,,,0.00,76.000000,,2013-03-03 16:52:00,
2013-03-03 09:01:00,52.0,49.0,-100.00,SSE,148,2.0,4.0,91,0.00,,,0.00,76.000000,,2013-03-03 17:01:00,
2013-03-03 09:32:00,55.0,51.0,-100.00,WNW,299,2.0,5.0,85,0.00,,,-99.99,144.000000,,2013-03-03 17:32:00,
2013-03-03 09:42:00,55.0,51.0,-100.00,WNW,299,2.0,5.0,85,0.00,,,-99.99,144.000000,,2013-03-03 17:42:00,
2013-03-03 09:52:00,55.0,51.0,-100.00,WNW,299,2.0,5.0,85,0.00,,,-99.99,144.000000,,2013-03-03 17:52:00,
2013-03-03 10:01:00,55.0,51.0,-100.00,WNW,299,2.0,5.0,85,0.00,,,-99.99,144.000000,,2013-03-03 18:01:00,
2013-03-03 10:32:00,57.0,50.0,-100.00,NNW,334,2.0,5.0,77,0.00,,,0.00,261.000000,,2013-03-03 18:32:00,
2013-03-03 10:42:00,57.0,50.0,-100.00,NNW,334,2.0,5.0,77,0.00,,,0.00,261.000000,,2013-03-03 18:42:00,
2013-03-03 10:52:00,57.0,50.0,-100.00,NNW,334,2.0,5.0,77,0.00,,,0.00,261.000000,,2013-03-03 18:52:00,
2013-03-03 11:01:00,57.0,50.0,-100.00,NNW,334,2.0,5.0,77,0.00,,,0.00,261.000000,,2013-03-03 19:01:00,
2013-03-03 11:32:00,63.0,51.0,-100.00,North,4,3.0,7.0,64,0.00,,,0.00,595.000000,,2013-03-03 19:32:00,
2013-03-03 12:32:00,63.0,49.0,-100.00,SE,128,4.0,12.0,61,-99.99,,,0.00,672.000000,,2013-03-03 20:32:00,
2013-03-03 12:42:00,63.0,49.0,-100.00,SE,128,4.0,12.0,61,-99.99,,,0.00,672.000000,,2013-03-03 20:42:00,
2013-03-03 12:52:00,63.0,49.0,-100.00,SE,128,4.0,12.0,61,-99.99,,,0.00,672.000000,,2013-03-03 20:52:00,
2013-03-03 13:32:00,65.0,50.0,-100.00,SE,132,4.0,10.0,58,0.00,,,0.00,497.000000,,2013-03-03 21:32:00,
2013-03-03 14:32:00,69.0,43.0,-100.00,NW,314,5.0,15.0,39,0.00,,,0.00,774.000000,,2013-03-03 22:32:00,
2013-03-03 15:32:00,67.0,48.0,-100.00,NNW,327,4.0,13.0,50,-99.99,,,0.00,645.000000,,2013-03-03 23:32:00,
2013-03-03 16:32:00,62.0,41.0,-100.00,West,270,3.0,12.0,46,-99.99,,,0.00,327.000000,,2013-03-04 00:32:00,
2013-03-03 16:42:00,62.0,41.0,-100.00,West,270,3.0,12.0,46,-99.99,,,0.00,327.000000,,2013-03-04 00:42:00,
2013-03-03 16:52:00,62.0,41.0,-100.00,West,270,3.0,12.0,46,-99.99,,,0.00,327.000000,,2013-03-04 00:52:00,
2013-03-03 17:01:00,62.0,41.0,-100.00,West,270,3.0,12.0,46,-99.99,,,0.00,327.000000,,2013-03-04 01:01:00,
2013-03-03 17:32:00,57.0,47.0,-100.00,WSW,240,3.0,8.0,70,0.00,,,0.00,33.000000,,2013-03-04 01:32:00,
2013-03-03 17:42:00,57.0,47.0,-100.00,WSW,240,3.0,8.0,70,0.00,,,0.00,33.000000,,2013-03-04 01:42:00,
2013-03-03 17:52:00,57.0,47.0,-100.00,WSW,240,3.0,8.0,70,0.00,,,0.00,33.000000,,2013-03-04 01:52:00,
2013-03-03 18:01:00,57.0,47.0,-100.00,WSW,240,3.0,8.0,70,0.00,,,0.00,33.000000,,2013-03-04 02:01:00,
2013-03-03 18:32:00,53.0,45.0,-100.00,WSW,257,3.0,6.0,74,0.00,,,0.00,15.000000,,2013-03-04 02:32:00,
2013-03-03 18:42:00,53.0,45.0,-100.00,WSW,257,3.0,6.0,74,0.00,,,0.00,15.000000,,2013-03-04 02:42:00,
2013-03-03 18:52:00,53.0,45.0,-100.00,WSW,257,3.0,6.0,74,0.00,,,0.00,15.000000,,2013-03-04 02:52:00,
2013-03-03 19:01:00,53.0,45.0,-100.00,WSW,257,3.0,6.0,74,0.00,,,0.00,15.000000,,2013-03-04 03:01:00,
2013-03-03 19:32:00,49.0,46.0,-100.00,NNW,331,3.0,7.0,88,0.00,,,0.00,0.000000,,2013-03-04 03:32:00,
2013-03-03 19:42:00,49.0,46.0,-100.00,NNW,331,3.0,7.0,88,0.00,,,0.00,0.000000,,2013-03-04 03:42:00,
2013-03-03 19:52:00,49.0,46.0,-100.00,NNW,331,3.0,7.0,88,0.00,,,0.00,0.000000,,2013-03-04 03:52:00,
2013-03-03 20:01:00,49.0,46.0,-100.00,NNW,331,3.0,7.0,88,0.00,,,0.00,0.000000,,2013-03-04 04:01:00,
2013-03-03 20:32:00,48.0,45.0,-100.00,NNE,27,3.0,9.0,90,0.00,,,0.00,0.000000,,2013-03-04 04:32:00,
2013-03-03 20:42:00,48.0,45.0,-100.00,NNE,27,3.0,9.0,90,0.00,,,0.00,0.000000,,2013-03-04 04:42:00,
2013-03-03 20:52:00,48.0,45.0,-100.00,NNE,27,3.0,9.0,90,0.00,,,0.00,0.000000,,2013-03-04 04:52:00,
2013-03-03 21:01:00,48.0,45.0,-100.00,NNE,27,3.0,9.0,90,0.00,,,0.00,0.000000,,2013-03-04 05:01:00,
2013-03-03 21:32:00,47.0,44.0,-100.00,West,265,1.0,8.0,89,0.00,,,0.00,0.000000,,2013-03-04 05:32:00,
2013-03-03 21:42:00,47.0,44.0,-100.00,West,265,1.0,8.0,89,0.00,,,0.00,0.000000,,2013-03-04 05:42:00,
2013-03-03 21:52:00,47.0,44.0,-100.00,West,265,1.0,8.0,89,0.00,,,0.00,0.000000,,2013-03-04 05:52:00,
2013-03-03 22:01:00,47.0,44.0,-100.00,West,265,1.0,8.0,89,0.00,,,0.00,0.000000,,2013-03-04 06:01:00,
2013-03-03 22:32:00,46.0,44.0,-100.00,NW,323,2.0,6.0,92,0.00,,,0.00,0.000000,,2013-03-04 06:32:00,
2013-03-03 22:42:00,46.0,44.0,-100.00,NW,323,2.0,6.0,92,0.00,,,0.00,0.000000,,2013-03-04 06:42:00,
2013-03-03 22:52:00,46.0,44.0,-100.00,NW,323,2.0,6.0,92,0.00,,,0.00,0.000000,,2013-03-04 06:52:00,
2013-03-03 23:01:00,46.0,44.0,-100.00,NW,323,2.0,6.0,92,0.00,,,0.00,0.000000,,2013-03-04 07:01:00,
2013-03-03 23:32:00,44.0,42.0,-100.00,South,176,1.0,5.0,94,0.00,,,0.00,0.000000,,2013-03-04 07:32:00,
2013-03-03 23:42:00,44.0,42.0,-100.00,South,176,1.0,5.0,94,0.00,,,0.00,0.000000,,2013-03-04 07:42:00,
2013-03-03 23:52:00,44.0,42.0,-100.00,South,176,1.0,5.0,94,0.00,,,0.00,0.000000,,2013-03-04 07:52:00,